Time,TemperatureF,DewpointF,PressureIn,WindDirection,WindDirectionDegrees,WindSpeedMPH,WindSpeedGustMPH,Humidity,HourlyPrecipIn,Conditions,Clouds,dailyrainin,SoftwareType,DateUTC
2013-01-22 00:00:00,13.3,10.7,30.00,WSW,251,0.0,10.0,89,0.00,,,0.00,VWS V13.01,2013-01-22 05:00:00,
2013-01-22 00:01:00,13.3,10.7,30.00,WSW,252,2.0,10.0,89,0.00,,,0.00,VWS V13.01,2013-01-22 05:01:00,
2013-01-22 00:04:00,13.2,10.6,30.01,WSW,248,3.0,9.0,89,0.00,,,0.00,VWS V13.01,2013-01-22 05:04:00,
2013-01-22 00:09:00,13.1,10.2,30.00,WNW,285,3.0,9.0,88,0.00,,,0.00,VWS V13.01,2013-01-22 05:09:00,
2013-01-22 00:14:00,12.9,10.0,30.00,SSE,161,6.0,9.0,88,0.00,,,0.00,VWS V13.01,2013-01-22 05:14:00,
2013-01-22 00:19:00,12.7,9.8,30.00,WSW,256,4.0,9.0,88,0.00,,,0.00,VWS V13.01,2013-01-22 05:19:00,
2013-01-22 00:24:00,12.6,9.7,30.00,SW,234,0.0,9.0,88,0.00,,,0.00,VWS V13.01,2013-01-22 05:24:00,
2013-01-22 00:29:00,12.6,9.7,30.00,South,190,0.0,9.0,88,0.00,,,0.00,VWS V13.01,2013-01-22 05:29:00,
2013-01-22 00:34:00,12.6,9.7,30.00,WSW,244,1.0,5.0,88,0.00,,OVC043,0.00,VWS V13.01,2013-01-22 05:34:00,
2013-01-22 00:39:00,12.6,9.7,30.00,SW,217,1.0,6.0,88,0.00,,OVC043,0.00,VWS V13.01,2013-01-22 05:39:00,
2013-01-22 00:44:00,12.5,9.6,30.00,SW,225,0.0,9.0,88,0.00,,OVC043,0.00,VWS V13.01,2013-01-22 05:44:00,
2013-01-22 00:49:00,12.5,9.6,30.00,NW,313,0.0,9.0,88,0.00,,,0.00,VWS V13.01,2013-01-22 05:49:00,
2013-01-22 00:54:00,12.6,9.7,30.01,SW,231,0.0,9.0,88,0.00,,,0.00,VWS V13.01,2013-01-22 05:54:00,
2013-01-22 00:59:00,12.4,9.5,30.00,SSW,196,1.0,9.0,88,0.00,,,0.00,VWS V13.01,2013-01-22 05:59:00,
2013-01-22 01:04:00,12.3,9.4,30.01,WNW,291,0.0,5.0,88,0.00,,,0.00,VWS V13.01,2013-01-22 06:04:00,
2013-01-22 01:09:00,12.3,9.4,30.00,WSW,248,0.0,5.0,88,0.00,,,0.00,VWS V13.01,2013-01-22 06:09:00,
2013-01-22 01:14:00,12.1,9.5,30.00,West,277,0.0,5.0,89,0.00,,,0.00,VWS V13.01,2013-01-22 06:14:00,
2013-01-22 01:19:00,12.0,9.1,30.01,SSW,205,2.0,5.0,88,0.00,,,0.00,VWS V13.01,2013-01-22 06:19:00,
2013-01-22 01:24:00,11.9,9.3,30.01,WSW,241,0.0,5.0,89,0.00,,,0.00,VWS V13.01,2013-01-22 06:24:00,
2013-01-22 01:29:00,11.8,9.2,30.01,WSW,237,0.0,5.0,89,0.00,,,0.00,VWS V13.01,2013-01-22 06:29:00,
2013-01-22 01:34:00,11.7,9.1,30.01,SW,223,1.0,6.0,89,0.00,,,0.00,VWS V13.01,2013-01-22 06:34:00,
2013-01-22 01:39:00,11.4,8.5,30.01,WSW,249,2.0,6.0,88,0.00,,,0.00,VWS V13.01,2013-01-22 06:39:00,
2013-01-22 01:44:00,11.3,8.4,30.02,SW,236,2.0,6.0,88,0.00,,,0.00,VWS V13.01,2013-01-22 06:44:00,
2013-01-22 01:49:00,11.3,8.4,30.02,WSW,240,2.0,6.0,88,0.00,,,0.00,VWS V13.01,2013-01-22 06:49:00,
2013-01-22 01:54:00,11.2,8.4,30.03,WSW,254,2.0,13.0,88,0.00,,,0.00,VWS V13.01,2013-01-22 06:54:00,
2013-01-22 01:59:00,11.0,8.1,30.03,WSW,242,1.0,13.0,88,0.00,,,0.00,VWS V13.01,2013-01-22 06:59:00,
2013-01-22 02:04:00,10.9,8.1,30.03,WNW,284,3.0,6.0,88,0.00,,,0.00,VWS V13.01,2013-01-22 07:04:00,
2013-01-22 02:09:00,10.9,8.1,30.04,West,261,1.0,7.0,88,0.00,,,0.00,VWS V13.01,2013-01-22 07:09:00,
2013-01-22 02:14:00,10.9,8.1,30.04,West,270,0.0,7.0,88,0.00,,,0.00,VWS V13.01,2013-01-22 07:14:00,
2013-01-22 02:19:00,10.8,7.9,30.04,West,279,3.0,8.0,88,0.00,,,0.00,VWS V13.01,2013-01-22 07:19:00,
2013-01-22 02:24:00,10.6,7.8,30.04,West,267,4.0,9.0,88,0.00,,,0.00,VWS V13.01,2013-01-22 07:24:00,
2013-01-22 02:29:00,10.7,7.6,30.04,WNW,289,3.0,10.0,87,0.00,,,0.00,VWS V13.01,2013-01-22 07:29:00,
2013-01-22 02:34:00,10.6,7.5,30.04,West,263,2.0,6.0,87,0.00,,,0.00,VWS V13.01,2013-01-22 07:34:00,
2013-01-22 02:39:00,10.7,7.6,30.05,WSW,238,0.0,7.0,87,0.00,,,0.00,VWS V13.01,2013-01-22 07:39:00,
2013-01-22 02:44:00,10.7,7.6,30.04,West,262,1.0,10.0,87,0.00,,,0.00,VWS V13.01,2013-01-22 07:44:00,
2013-01-22 02:49:00,10.6,7.5,30.05,WSW,244,2.0,14.0,87,0.00,,,0.00,VWS V13.01,2013-01-22 07:49:00,
2013-01-22 02:54:00,10.6,7.5,30.05,WSW,242,2.0,14.0,87,0.00,,,0.00,VWS V13.01,2013-01-22 07:54:00,
2013-01-22 02:59:00,10.6,7.5,30.05,SW,215,6.0,14.0,87,0.00,,,0.00,VWS V13.01,2013-01-22 07:59:00,
2013-01-22 03:04:00,10.5,7.4,30.05,WSW,248,2.0,11.0,87,0.00,,OVC055,0.00,VWS V13.01,2013-01-22 08:04:00,
2013-01-22 03:10:00,10.5,7.4,30.05,West,276,5.0,12.0,87,0.00,,OVC055,0.00,VWS V13.01,2013-01-22 08:10:00,
2013-01-22 03:15:00,10.5,7.4,30.05,WSW,250,5.0,12.0,87,0.00,,OVC055,0.00,VWS V13.01,2013-01-22 08:15:00,
2013-01-22 03:20:00,10.4,7.3,30.06,WSW,245,2.0,12.0,87,0.00,,OVC055,0.00,VWS V13.01,2013-01-22 08:20:00,
2013-01-22 03:25:00,10.3,7.2,30.05,WNW,285,1.0,12.0,87,0.00,,OVC055,0.00,VWS V13.01,2013-01-22 08:25:00,
2013-01-22 03:30:00,10.3,7.2,30.06,NW,306,0.0,12.0,87,0.00,,OVC055,0.00,VWS V13.01,2013-01-22 08:30:00,
2013-01-22 03:35:00,10.3,7.2,30.06,WNW,301,3.0,14.0,87,0.00,,OVC055,0.00,VWS V13.01,2013-01-22 08:35:00,
2013-01-22 03:40:00,10.3,7.2,30.06,WSW,244,6.0,14.0,87,0.00,,OVC055,0.00,VWS V13.01,2013-01-22 08:40:00,
2013-01-22 03:45:00,10.1,7.0,30.06,WSW,240,1.0,14.0,87,0.00,,OVC055,0.00,VWS V13.01,2013-01-22 08:45:00,
2013-01-22 03:50:00,10.0,6.9,30.06,NW,322,3.0,14.0,87,0.00,,,0.00,VWS V13.01,2013-01-22 08:50:00,
2013-01-22 03:55:00,10.0,6.9,30.06,SW,231,0.0,14.0,87,0.00,,,0.00,VWS V13.01,2013-01-22 08:55:00,
2013-01-22 04:00:00,10.0,6.9,30.06,ESE,113,0.0,15.0,87,0.00,,,0.00,VWS V13.01,2013-01-22 09:00:00,
2013-01-22 04:05:00,10.0,6.9,30.06,WSW,254,0.0,11.0,87,0.00,,,0.00,VWS V13.01,2013-01-22 09:05:00,
2013-01-22 04:10:00,10.1,7.0,30.06,SSW,203,10.0,11.0,87,0.00,,,0.00,VWS V13.01,2013-01-22 09:10:00,
2013-01-22 04:15:00,10.1,7.0,30.06,West,272,1.0,16.0,87,0.00,,,0.00,VWS V13.01,2013-01-22 09:15:00,
2013-01-22 04:20:00,10.1,7.0,30.06,SW,214,6.0,16.0,87,0.00,,,0.00,VWS V13.01,2013-01-22 09:20:00,
2013-01-22 04:25:00,10.1,7.0,30.06,NNW,331,2.0,16.0,87,0.00,,,0.00,VWS V13.01,2013-01-22 09:25:00,
2013-01-22 04:30:00,10.1,7.0,30.06,WNW,285,3.0,18.0,87,0.00,,,0.00,VWS V13.01,2013-01-22 09:30:00,
2013-01-22 04:35:00,10.2,7.1,30.07,WSW,258,1.0,11.0,87,0.00,,,0.00,VWS V13.01,2013-01-22 09:35:00,
2013-01-22 04:40:00,10.3,7.2,30.07,WSW,254,0.0,14.0,87,0.00,,,0.00,VWS V13.01,2013-01-22 09:40:00,
2013-01-22 04:45:00,10.2,7.1,30.06,West,261,2.0,14.0,87,0.00,,,0.00,VWS V13.01,2013-01-22 09:45:00,
2013-01-22 04:50:00,10.1,7.0,30.07,West,281,10.0,15.0,87,0.00,,,0.00,VWS V13.01,2013-01-22 09:50:00,
2013-01-22 04:55:00,10.0,6.7,30.07,West,279,2.0,15.0,86,0.00,,,0.00,VWS V13.01,2013-01-22 09:55:00,
2013-01-22 05:00:00,10.0,6.9,30.08,WSW,247,4.0,7.0,87,0.00,,,0.00,VWS V13.01,2013-01-22 10:00:00,
2013-01-22 05:05:00,10.0,6.9,30.08,ESE,109,2.0,9.0,87,0.00,,,0.00,VWS V13.01,2013-01-22 10:05:00,
2013-01-22 05:10:00,10.0,6.7,30.08,WNW,283,5.0,15.0,86,0.00,,,0.00,VWS V13.01,2013-01-22 10:10:00,
2013-01-22 05:15:00,10.1,7.0,30.08,WSW,242,2.0,15.0,87,0.00,,,0.00,VWS V13.01,2013-01-22 10:15:00,
2013-01-22 05:20:00,10.1,7.0,30.08,WSW,246,3.0,15.0,87,0.00,,,0.00,VWS V13.01,2013-01-22 10:20:00,
2013-01-22 05:25:00,10.1,7.0,30.08,WSW,248,2.0,15.0,87,0.00,,,0.00,VWS V13.01,2013-01-22 10:25:00,
2013-01-22 05:30:00,10.1,7.0,30.08,SSW,210,3.0,6.0,87,0.00,,,0.00,VWS V13.01,2013-01-22 10:30:00,
2013-01-22 05:35:00,10.0,6.9,30.08,WNW,293,3.0,10.0,87,0.00,,,0.00,VWS V13.01,2013-01-22 10:35:00,
2013-01-22 05:40:00,9.9,6.6,30.08,WNW,299,2.0,14.0,86,0.00,,,0.00,VWS V13.01,2013-01-22 10:40:00,
2013-01-22 05:45:00,9.9,6.6,30.08,NE,51,1.0,14.0,86,0.00,,,0.00,VWS V13.01,2013-01-22 10:45:00,
2013-01-22 05:50:00,9.9,6.6,30.08,West,264,0.0,14.0,86,0.00,,,0.00,VWS V13.01,2013-01-22 10:50:00,
2013-01-22 05:55:00,9.9,6.6,30.08,WNW,285,5.0,14.0,86,0.00,,,0.00,VWS V13.01,2013-01-22 10:55:00,
2013-01-22 06:00:00,9.8,6.5,30.09,WSW,252,2.0,3.0,86,0.00,,OVC036,0.00,VWS V13.01,2013-01-22 11:00:00,
2013-01-22 06:05:00,9.8,6.7,30.09,WSW,248,3.0,11.0,87,0.00,,OVC036,0.00,VWS V13.01,2013-01-22 11:05:00,
2013-01-22 06:10:00,9.7,6.6,30.10,West,277,9.0,17.0,87,0.00,,OVC036,0.00,VWS V13.01,2013-01-22 11:10:00,
2013-01-22 06:15:00,9.5,6.7,30.10,NW,304,4.0,17.0,88,0.00,,,0.00,VWS V13.01,2013-01-22 11:15:00,
2013-01-22 06:20:00,9.3,6.5,30.09,WNW,285,5.0,17.0,88,0.00,,,0.00,VWS V13.01,2013-01-22 11:20:00,
2013-01-22 06:25:00,9.2,6.4,30.10,West,276,3.0,17.0,88,0.00,,,0.00,VWS V13.01,2013-01-22 11:25:00,
2013-01-22 06:30:00,9.2,6.1,30.10,West,261,4.0,5.0,87,0.00,,,0.00,VWS V13.01,2013-01-22 11:30:00,
2013-01-22 06:35:00,9.2,6.1,30.10,NW,319,0.0,12.0,87,0.00,,,0.00,VWS V13.01,2013-01-22 11:35:00,
2013-01-22 06:40:00,9.2,6.1,30.11,West,275,2.0,12.0,87,0.00,,,0.00,VWS V13.01,2013-01-22 11:40:00,
2013-01-22 06:45:00,9.1,6.0,30.11,North,355,4.0,12.0,87,0.00,,,0.00,VWS V13.01,2013-01-22 11:45:00,
2013-01-22 06:50:00,9.1,6.0,30.11,WNW,285,5.0,12.0,87,0.00,,,0.00,VWS V13.01,2013-01-22 11:50:00,
2013-01-22 06:55:00,9.0,5.9,30.11,West,263,12.0,12.0,87,0.00,,,0.00,VWS V13.01,2013-01-22 11:55:00,
2013-01-22 07:01:00,8.9,5.6,30.11,WNW,282,2.0,5.0,86,0.00,,,0.00,VWS V13.01,2013-01-22 12:01:00,
2013-01-22 07:06:00,8.8,5.5,30.12,WSW,246,2.0,17.0,86,0.00,,,0.00,VWS V13.01,2013-01-22 12:06:00,
2013-01-22 07:11:00,8.7,5.4,30.12,West,269,0.0,17.0,86,0.00,,,0.00,VWS V13.01,2013-01-22 12:11:00,
2013-01-22 07:16:00,8.7,5.6,30.12,SSW,201,4.0,17.0,87,0.00,,,0.00,VWS V13.01,2013-01-22 12:16:00,
2013-01-22 07:21:00,8.6,5.3,30.12,West,280,2.0,17.0,86,0.00,,,0.00,VWS V13.01,2013-01-22 12:21:00,
2013-01-22 07:26:00,8.5,5.2,30.12,West,272,1.0,17.0,86,0.00,,,0.00,VWS V13.01,2013-01-22 12:26:00,
2013-01-22 07:31:00,8.4,5.1,30.13,WSW,258,4.0,5.0,86,0.00,,,0.00,VWS V13.01,2013-01-22 12:31:00,
2013-01-22 07:36:00,8.3,5.0,30.13,West,263,2.0,10.0,86,0.00,,,0.00,VWS V13.01,2013-01-22 12:36:00,
2013-01-22 07:41:00,8.4,5.1,30.13,NW,304,5.0,11.0,86,0.00,,,0.00,VWS V13.01,2013-01-22 12:41:00,
2013-01-22 07:46:00,8.3,5.0,30.13,West,281,3.0,12.0,86,0.00,,OVC046,0.00,VWS V13.01,2013-01-22 12:46:00,
2013-01-22 07:51:00,8.4,5.1,30.13,WSW,239,4.0,13.0,86,0.00,,OVC046,0.00,VWS V13.01,2013-01-22 12:51:00,
2013-01-22 07:56:00,8.4,5.1,30.13,West,281,7.0,15.0,86,0.00,,OVC046,0.00,VWS V13.01,2013-01-22 12:56:00,
2013-01-22 08:01:00,8.5,5.2,30.13,SW,225,2.0,6.0,86,0.00,,OVC046,0.00,VWS V13.01,2013-01-22 13:01:00,
2013-01-22 08:06:00,8.6,5.3,30.14,SW,231,7.0,13.0,86,0.00,,OVC046,0.00,VWS V13.01,2013-01-22 13:06:00,
2013-01-22 08:11:00,8.6,5.3,30.13,ESE,116,2.0,13.0,86,0.00,,OVC046,0.00,VWS V13.01,2013-01-22 13:11:00,
2013-01-22 08:16:00,8.7,5.4,30.14,WSW,242,2.0,18.0,86,0.00,,OVC046,0.00,VWS V13.01,2013-01-22 13:16:00,
2013-01-22 08:21:00,8.7,5.4,30.14,WNW,284,2.0,18.0,86,0.00,,OVC046,0.00,VWS V13.01,2013-01-22 13:21:00,
2013-01-22 08:27:00,8.8,5.5,30.14,WSW,256,4.0,18.0,86,0.00,,OVC046,0.00,VWS V13.01,2013-01-22 13:27:00,
2013-01-22 08:32:00,8.7,5.4,30.14,NNE,18,2.0,13.0,86,0.00,,OVC046,0.00,VWS V13.01,2013-01-22 13:32:00,
2013-01-22 08:37:00,8.7,5.1,30.14,WSW,250,4.0,13.0,85,0.00,,OVC046,0.00,VWS V13.01,2013-01-22 13:37:00,
2013-01-22 08:42:00,8.7,5.4,30.14,WSW,242,3.0,13.0,86,0.00,,OVC046,0.00,VWS V13.01,2013-01-22 13:42:00,
2013-01-22 08:47:00,8.6,5.3,30.15,WSW,246,3.0,15.0,86,0.00,,,0.00,VWS V13.01,2013-01-22 13:47:00,
2013-01-22 08:52:00,8.5,5.2,30.16,SSE,158,0.0,15.0,86,0.00,,,0.00,VWS V13.01,2013-01-22 13:52:00,
2013-01-22 08:57:00,8.3,5.0,30.16,WSW,250,1.0,15.0,86,0.00,,,0.00,VWS V13.01,2013-01-22 13:57:00,
2013-01-22 09:02:00,8.1,4.5,30.16,SW,226,2.0,11.0,85,0.00,,,0.00,VWS V13.01,2013-01-22 14:02:00,
2013-01-22 09:07:00,8.0,4.4,30.16,WNW,282,4.0,15.0,85,0.00,,,0.00,VWS V13.01,2013-01-22 14:07:00,
2013-01-22 09:12:00,8.0,4.4,30.17,SW,229,11.0,15.0,85,0.00,,,0.00,VWS V13.01,2013-01-22 14:12:00,
2013-01-22 09:17:00,8.1,4.5,30.16,SSW,194,13.0,15.0,85,0.00,,,0.00,VWS V13.01,2013-01-22 14:17:00,
2013-01-22 09:22:00,8.0,4.4,30.17,SW,234,6.0,15.0,85,0.00,,,0.00,VWS V13.01,2013-01-22 14:22:00,
2013-01-22 09:27:00,7.9,4.6,30.17,West,272,6.0,16.0,86,0.00,,,0.00,VWS V13.01,2013-01-22 14:27:00,
2013-01-22 09:32:00,8.0,4.4,30.17,WSW,257,6.0,14.0,85,0.00,,,0.00,VWS V13.01,2013-01-22 14:32:00,
2013-01-22 09:37:00,8.0,4.4,30.17,WNW,292,1.0,14.0,85,0.00,,,0.00,VWS V13.01,2013-01-22 14:37:00,
2013-01-22 09:42:00,8.0,4.4,30.17,WNW,288,2.0,14.0,85,0.00,,,0.00,VWS V13.01,2013-01-22 14:42:00,
2013-01-22 09:47:00,8.0,4.4,30.18,WSW,254,3.0,17.0,85,0.00,,,0.00,VWS V13.01,2013-01-22 14:47:00,
2013-01-22 09:52:00,7.9,4.6,30.18,West,274,6.0,18.0,86,0.00,,,0.00,VWS V13.01,2013-01-22 14:52:00,
2013-01-22 09:57:00,7.8,4.5,30.18,SW,234,1.0,18.0,86,0.00,,,0.00,VWS V13.01,2013-01-22 14:57:00,
2013-01-22 10:02:00,7.8,4.5,30.19,WSW,254,3.0,9.0,86,0.00,,,0.00,VWS V13.01,2013-01-22 15:02:00,
2013-01-22 10:07:00,7.7,4.4,30.19,South,171,1.0,9.0,86,0.00,,,0.00,VWS V13.01,2013-01-22 15:07:00,
2013-01-22 10:12:00,7.6,4.3,30.19,West,273,3.0,9.0,86,0.00,,,0.00,VWS V13.01,2013-01-22 15:12:00,
2013-01-22 10:17:00,7.4,4.1,30.19,West,262,3.0,11.0,86,0.00,,,0.00,VWS V13.01,2013-01-22 15:17:00,
2013-01-22 10:23:00,7.4,4.1,30.19,West,275,1.0,17.0,86,0.00,,,0.00,VWS V13.01,2013-01-22 15:23:00,
2013-01-22 10:28:00,7.5,4.2,30.20,West,279,4.0,17.0,86,0.00,,,0.00,VWS V13.01,2013-01-22 15:28:00,
2013-01-22 10:33:00,7.5,4.2,30.20,West,277,6.0,12.0,86,0.00,,,0.00,VWS V13.01,2013-01-22 15:33:00,
2013-01-22 10:38:00,7.5,3.9,30.20,SSE,155,0.0,13.0,85,0.00,,,0.00,VWS V13.01,2013-01-22 15:38:00,
2013-01-22 10:43:00,7.4,3.8,30.21,NW,312,3.0,13.0,85,0.00,,,0.00,VWS V13.01,2013-01-22 15:43:00,
2013-01-22 10:48:00,7.4,3.8,30.21,SW,215,4.0,16.0,85,0.00,,,0.00,VWS V13.01,2013-01-22 15:48:00,
2013-01-22 10:53:00,7.4,3.8,30.21,NNE,12,6.0,17.0,85,0.00,,,0.00,VWS V13.01,2013-01-22 15:53:00,
2013-01-22 10:58:00,7.4,3.8,30.21,West,266,4.0,17.0,85,0.00,,,0.00,VWS V13.01,2013-01-22 15:58:00,
2013-01-22 11:03:00,7.5,3.9,30.22,WSW,256,0.0,9.0,85,0.00,,,0.00,VWS V13.01,2013-01-22 16:03:00,
2013-01-22 11:08:00,7.6,4.0,30.22,WNW,294,2.0,9.0,85,0.00,,,0.00,VWS V13.01,2013-01-22 16:08:00,
2013-01-22 11:13:00,7.5,3.9,30.22,West,275,4.0,13.0,85,0.00,,,0.00,VWS V13.01,2013-01-22 16:13:00,
2013-01-22 11:18:00,7.4,3.6,30.22,West,261,1.0,13.0,84,0.00,,,0.00,VWS V13.01,2013-01-22 16:18:00,
2013-01-22 11:23:00,7.4,3.6,30.22,WNW,286,2.0,13.0,84,0.00,,,0.00,VWS V13.01,2013-01-22 16:23:00,
2013-01-22 11:28:00,7.5,3.7,30.22,SW,227,2.0,13.0,84,0.00,,,0.00,VWS V13.01,2013-01-22 16:28:00,
2013-01-22 11:33:00,7.6,3.8,30.22,WSW,237,5.0,9.0,84,0.00,,,0.00,VWS V13.01,2013-01-22 16:33:00,
2013-01-22 11:38:00,7.6,3.8,30.21,WSW,254,2.0,10.0,84,0.00,,,0.00,VWS V13.01,2013-01-22 16:38:00,
2013-01-22 11:43:00,7.7,4.1,30.21,West,271,6.0,16.0,85,0.00,,,0.00,VWS V13.01,2013-01-22 16:43:00,
2013-01-22 11:48:00,7.8,4.0,30.21,West,260,2.0,16.0,84,0.00,,OVC041,0.00,VWS V13.01,2013-01-22 16:48:00,
2013-01-22 11:53:00,7.9,4.1,30.20,West,264,3.0,16.0,84,0.00,,OVC041,0.00,VWS V13.01,2013-01-22 16:53:00,
2013-01-22 11:58:00,7.9,4.1,30.21,WNW,285,6.0,16.0,84,0.00,,OVC041,0.00,VWS V13.01,2013-01-22 16:58:00,
2013-01-22 12:03:00,7.9,4.1,30.21,NW,325,1.0,4.0,84,0.00,,OVC046,0.00,VWS V13.01,2013-01-22 17:03:00,
2013-01-22 12:08:00,7.9,4.1,30.20,NNW,345,3.0,14.0,84,0.00,,OVC046,0.00,VWS V13.01,2013-01-22 17:08:00,
2013-01-22 12:13:00,8.0,4.2,30.20,West,276,6.0,14.0,84,0.00,,OVC046,0.00,VWS V13.01,2013-01-22 17:13:00,
2013-01-22 12:18:00,8.1,4.3,30.20,West,279,3.0,14.0,84,0.00,,OVC046,0.00,VWS V13.01,2013-01-22 17:18:00,
2013-01-22 12:23:00,8.1,4.5,30.20,West,281,2.0,14.0,85,0.00,,OVC046,0.00,VWS V13.01,2013-01-22 17:23:00,
2013-01-22 12:28:00,8.2,4.4,30.20,WSW,241,2.0,14.0,84,0.00,,OVC046,0.00,VWS V13.01,2013-01-22 17:28:00,
2013-01-22 12:33:00,8.3,4.5,30.20,West,277,5.0,5.0,84,0.00,,OVC050,0.00,VWS V13.01,2013-01-22 17:33:00,
2013-01-22 12:38:00,8.2,4.6,30.20,NW,318,2.0,11.0,85,0.00,,OVC050,0.00,VWS V13.01,2013-01-22 17:38:00,
2013-01-22 12:43:00,8.2,4.6,30.19,NNE,23,3.0,11.0,85,0.00,,OVC050,0.00,VWS V13.01,2013-01-22 17:43:00,
2013-01-22 12:48:00,8.4,4.8,30.19,WNW,284,1.0,11.0,85,0.00,,,0.00,VWS V13.01,2013-01-22 17:48:00,
2013-01-22 12:53:00,8.5,4.9,30.19,WSW,242,2.0,11.0,85,0.00,,,0.00,VWS V13.01,2013-01-22 17:53:00,
2013-01-22 12:58:00,8.5,4.9,30.19,WNW,296,2.0,11.0,85,0.00,,,0.00,VWS V13.01,2013-01-22 17:58:00,
2013-01-22 13:03:00,8.6,5.0,30.19,WSW,242,5.0,9.0,85,0.00,,,0.00,VWS V13.01,2013-01-22 18:03:00,
2013-01-22 13:08:00,8.8,5.2,30.19,West,264,3.0,10.0,85,0.00,,,0.00,VWS V13.01,2013-01-22 18:08:00,
2013-01-22 13:13:00,9.1,5.8,30.19,West,278,2.0,10.0,86,0.00,,,0.00,VWS V13.01,2013-01-22 18:13:00,
2013-01-22 13:19:00,9.2,5.4,30.19,West,279,0.0,10.0,84,0.00,,,0.00,VWS V13.01,2013-01-22 18:19:00,
2013-01-22 13:24:00,9.3,5.4,30.19,West,281,4.0,13.0,84,0.00,,,0.00,VWS V13.01,2013-01-22 18:24:00,
2013-01-22 13:29:00,9.3,5.4,30.18,West,260,1.0,20.0,84,0.00,,,0.00,VWS V13.01,2013-01-22 18:29:00,
2013-01-22 13:34:00,9.5,5.7,30.18,West,269,7.0,12.0,84,0.00,,,0.00,VWS V13.01,2013-01-22 18:34:00,
2013-01-22 13:39:00,9.5,5.4,30.18,SW,219,6.0,15.0,83,0.00,,,0.00,VWS V13.01,2013-01-22 18:39:00,
2013-01-22 13:44:00,9.5,5.4,30.18,North,5,2.0,15.0,83,0.00,,,0.00,VWS V13.01,2013-01-22 18:44:00,
2013-01-22 13:49:00,9.5,5.4,30.19,WNW,288,2.0,15.0,83,0.00,,OVC050,0.00,VWS V13.01,2013-01-22 18:49:00,
2013-01-22 13:54:00,9.5,5.4,30.18,WNW,294,3.0,15.0,83,0.00,,OVC050,0.00,VWS V13.01,2013-01-22 18:54:00,
2013-01-22 13:59:00,9.3,5.2,30.18,WSW,240,1.0,15.0,83,0.00,,OVC050,0.00,VWS V13.01,2013-01-22 18:59:00,
2013-01-22 14:04:00,9.3,5.2,30.18,West,270,1.0,7.0,83,0.00,,OVC050,0.00,VWS V13.01,2013-01-22 19:04:00,
2013-01-22 14:09:00,9.4,5.3,30.18,West,281,4.0,12.0,83,0.00,,OVC050,0.00,VWS V13.01,2013-01-22 19:09:00,
2013-01-22 14:14:00,9.4,5.3,30.18,SSW,194,3.0,18.0,83,0.00,,OVC050,0.00,VWS V13.01,2013-01-22 19:14:00,
2013-01-22 14:19:00,9.5,5.1,30.19,WSW,246,1.0,18.0,82,0.00,,OVC050,0.00,VWS V13.01,2013-01-22 19:19:00,
2013-01-22 14:24:00,9.4,5.0,30.19,WSW,244,7.0,18.0,82,0.00,,OVC050,0.00,VWS V13.01,2013-01-22 19:24:00,
2013-01-22 14:29:00,9.4,5.3,30.19,SW,223,0.0,18.0,83,0.00,,OVC050,0.00,VWS V13.01,2013-01-22 19:29:00,
2013-01-22 14:34:00,9.4,5.3,30.19,WNW,303,3.0,13.0,83,0.00,,OVC050,0.00,VWS V13.01,2013-01-22 19:34:00,
2013-01-22 14:39:00,9.4,5.3,30.19,West,271,7.0,13.0,83,0.00,,OVC050,0.00,VWS V13.01,2013-01-22 19:39:00,
2013-01-22 14:44:00,9.5,5.1,30.19,WSW,257,6.0,13.0,82,0.00,,OVC050,0.00,VWS V13.01,2013-01-22 19:44:00,
2013-01-22 14:49:00,9.4,5.0,30.20,WNW,284,2.0,13.0,82,0.00,,OVC050,0.00,VWS V13.01,2013-01-22 19:49:00,
2013-01-22 14:54:00,9.5,5.4,30.20,WNW,286,6.0,13.0,83,0.00,,OVC050,0.00,VWS V13.01,2013-01-22 19:54:00,
2013-01-22 14:59:00,9.5,5.4,30.20,SW,223,2.0,13.0,83,0.00,,OVC050,0.00,VWS V13.01,2013-01-22 19:59:00,
2013-01-22 15:04:00,9.5,5.4,30.20,WSW,256,2.0,9.0,83,0.00,,OVC048,0.00,VWS V13.01,2013-01-22 20:04:00,
2013-01-22 15:09:00,9.5,5.7,30.20,West,261,4.0,9.0,84,0.00,,OVC048,0.00,VWS V13.01,2013-01-22 20:09:00,
2013-01-22 15:14:00,9.5,5.7,30.20,South,173,4.0,9.0,84,0.00,,OVC048,0.00,VWS V13.01,2013-01-22 20:14:00,
2013-01-22 15:19:00,9.6,6.0,30.20,NNW,342,10.0,13.0,85,0.00,,,0.00,VWS V13.01,2013-01-22 20:19:00,
2013-01-22 15:24:00,9.5,5.9,30.20,WSW,248,2.0,13.0,85,0.00,,,0.00,VWS V13.01,2013-01-22 20:24:00,
2013-01-22 15:29:00,9.5,5.9,30.21,NNW,341,0.0,13.0,85,0.00,,,0.00,VWS V13.01,2013-01-22 20:29:00,
2013-01-22 15:34:00,9.7,6.1,30.21,West,267,0.0,11.0,85,0.00,,,0.00,VWS V13.01,2013-01-22 20:34:00,
2013-01-22 15:39:00,9.7,6.1,30.21,SW,221,2.0,11.0,85,0.00,,,0.00,VWS V13.01,2013-01-22 20:39:00,
2013-01-22 15:44:00,9.7,6.4,30.21,West,261,5.0,11.0,86,0.00,,,0.00,VWS V13.01,2013-01-22 20:44:00,
2013-01-22 15:49:00,9.8,6.2,30.21,WSW,246,1.0,13.0,85,0.00,,,0.00,VWS V13.01,2013-01-22 20:49:00,
2013-01-22 15:54:00,9.7,6.4,30.22,West,273,7.0,13.0,86,0.00,,,0.00,VWS V13.01,2013-01-22 20:54:00,
2013-01-22 15:59:00,9.7,6.4,30.21,West,263,0.0,13.0,86,0.00,,,0.00,VWS V13.01,2013-01-22 20:59:00,
2013-01-22 16:04:00,9.9,6.8,30.22,WSW,256,5.0,11.0,87,0.00,,,0.00,VWS V13.01,2013-01-22 21:04:00,
2013-01-22 16:09:00,9.9,6.8,30.22,West,277,0.0,11.0,87,0.00,,,0.00,VWS V13.01,2013-01-22 21:09:00,
2013-01-22 16:14:00,10.1,7.0,30.21,WSW,245,1.0,11.0,87,0.00,,,0.00,VWS V13.01,2013-01-22 21:14:00,
2013-01-22 16:19:00,10.2,6.8,30.22,WNW,284,3.0,11.0,86,0.00,,,0.00,VWS V13.01,2013-01-22 21:19:00,
2013-01-22 16:24:00,10.2,6.8,30.21,WNW,282,3.0,11.0,86,0.00,,,0.00,VWS V13.01,2013-01-22 21:24:00,
2013-01-22 16:29:00,10.3,6.9,30.22,SSW,206,1.0,11.0,86,0.00,,,0.00,VWS V13.01,2013-01-22 21:29:00,
2013-01-22 16:32:00,10.3,6.9,30.22,West,277,3.0,5.0,86,0.00,,,0.00,VWS V13.01,2013-01-22 21:32:00,
2013-01-22 16:37:00,10.3,7.2,30.22,WNW,301,5.0,11.0,87,0.00,,,0.00,VWS V13.01,2013-01-22 21:37:00,
2013-01-22 16:42:00,10.3,7.2,30.22,West,261,4.0,11.0,87,0.00,,,0.00,VWS V13.01,2013-01-22 21:42:00,
2013-01-22 16:47:00,10.3,7.2,30.22,WSW,239,3.0,11.0,87,0.00,,,0.00,VWS V13.01,2013-01-22 21:47:00,
2013-01-22 16:52:00,10.4,7.6,30.22,West,277,1.0,13.0,88,0.00,,,0.00,VWS V13.01,2013-01-22 21:52:00,
2013-01-22 16:57:00,10.4,7.6,30.22,West,273,0.0,13.0,88,0.00,,,0.00,VWS V13.01,2013-01-22 21:57:00,
2013-01-22 17:02:00,10.5,7.7,30.22,South,173,4.0,10.0,88,0.00,,,0.00,VWS V13.01,2013-01-22 22:02:00,
2013-01-22 17:07:00,10.3,7.5,30.22,WNW,295,2.0,10.0,88,0.00,,,0.00,VWS V13.01,2013-01-22 22:07:00,
2013-01-22 17:12:00,10.3,7.5,30.22,WNW,284,4.0,10.0,88,0.00,,,0.00,VWS V13.01,2013-01-22 22:12:00,
2013-01-22 17:17:00,10.4,7.6,30.22,WNW,294,4.0,17.0,88,0.00,,,0.00,VWS V13.01,2013-01-22 22:17:00,
2013-01-22 17:22:00,10.5,7.4,30.22,WSW,252,2.0,17.0,87,0.00,,,0.00,VWS V13.01,2013-01-22 22:22:00,
2013-01-22 17:27:00,10.6,7.5,30.22,West,274,1.0,17.0,87,0.00,,,0.00,VWS V13.01,2013-01-22 22:27:00,
2013-01-22 17:32:00,10.6,7.2,30.22,West,266,4.0,10.0,86,0.00,,,0.00,VWS V13.01,2013-01-22 22:32:00,
2013-01-22 17:37:00,10.7,7.3,30.22,West,275,2.0,10.0,86,0.00,,,0.00,VWS V13.01,2013-01-22 22:37:00,
2013-01-22 17:42:00,10.8,7.4,30.22,WNW,290,11.0,11.0,86,0.00,,,0.00,VWS V13.01,2013-01-22 22:42:00,
2013-01-22 17:47:00,10.9,7.3,30.22,West,277,5.0,11.0,85,0.00,,OVC032,0.00,VWS V13.01,2013-01-22 22:47:00,
2013-01-22 17:52:00,11.0,7.1,30.22,South,184,1.0,11.0,84,0.00,,OVC032,0.00,VWS V13.01,2013-01-22 22:52:00,
2013-01-22 17:57:00,11.1,7.2,30.22,SW,232,0.0,11.0,84,0.00,,OVC032,0.00,VWS V13.01,2013-01-22 22:57:00,
2013-01-22 18:02:00,11.2,7.3,30.22,SW,217,2.0,3.0,84,0.00,,OVC055,0.00,VWS V13.01,2013-01-22 23:02:00,
2013-01-22 18:07:00,11.2,7.3,30.22,SSW,202,2.0,6.0,84,0.00,,OVC055,0.00,VWS V13.01,2013-01-22 23:07:00,
2013-01-22 18:12:00,10.8,6.9,30.23,WSW,243,0.0,6.0,84,0.00,,OVC055,0.00,VWS V13.01,2013-01-22 23:12:00,
2013-01-22 18:17:00,10.5,6.9,30.23,WNW,298,0.0,6.0,85,0.00,,OVC055,0.00,VWS V13.01,2013-01-22 23:17:00,
2013-01-22 18:23:00,10.2,6.6,30.23,WSW,241,0.0,6.0,85,0.00,,OVC055,0.00,VWS V13.01,2013-01-22 23:23:00,
2013-01-22 18:28:00,10.1,6.8,30.23,WSW,237,0.0,6.0,86,0.00,,OVC055,0.00,VWS V13.01,2013-01-22 23:28:00,
2013-01-22 18:33:00,10.0,6.7,30.23,SSW,213,3.0,3.0,86,0.00,,,0.00,VWS V13.01,2013-01-22 23:33:00,
2013-01-22 18:38:00,9.9,6.6,30.24,SSW,207,2.0,5.0,86,0.00,,,0.00,VWS V13.01,2013-01-22 23:38:00,
2013-01-22 18:43:00,9.9,6.6,30.23,South,186,0.0,5.0,86,0.00,,,0.00,VWS V13.01,2013-01-22 23:43:00,
2013-01-22 18:48:00,9.9,6.6,30.24,SW,224,0.0,5.0,86,0.00,,,0.00,VWS V13.01,2013-01-22 23:48:00,
2013-01-22 18:53:00,9.9,6.8,30.24,WSW,237,0.0,5.0,87,0.00,,,0.00,VWS V13.01,2013-01-22 23:53:00,
2013-01-22 18:58:00,9.9,6.8,30.24,WSW,243,2.0,5.0,87,0.00,,,0.00,VWS V13.01,2013-01-22 23:58:00,
2013-01-22 19:03:00,9.9,6.8,30.24,WSW,250,1.0,3.0,87,0.00,,,0.00,VWS V13.01,2013-01-23 00:03:00,
2013-01-22 19:08:00,9.9,6.8,30.24,SSW,211,0.0,4.0,87,0.00,,,0.00,VWS V13.01,2013-01-23 00:08:00,
2013-01-22 19:13:00,9.9,6.8,30.24,SW,228,0.0,6.0,87,0.00,,,0.00,VWS V13.01,2013-01-23 00:13:00,
2013-01-22 19:18:00,9.9,6.8,30.24,WSW,239,2.0,6.0,87,0.00,,,0.00,VWS V13.01,2013-01-23 00:18:00,
2013-01-22 19:23:00,9.8,6.7,30.24,SW,217,0.0,6.0,87,0.00,,,0.00,VWS V13.01,2013-01-23 00:23:00,
2013-01-22 19:28:00,9.8,6.7,30.24,SW,221,0.0,6.0,87,0.00,,,0.00,VWS V13.01,2013-01-23 00:28:00,
2013-01-22 19:33:00,9.7,6.6,30.24,SW,216,0.0,2.0,87,0.00,,,0.00,VWS V13.01,2013-01-23 00:33:00,
2013-01-22 19:38:00,9.7,6.6,30.24,SSW,203,0.0,3.0,87,0.00,,,0.00,VWS V13.01,2013-01-23 00:38:00,
2013-01-22 19:43:00,9.7,6.6,30.24,SSW,203,0.0,4.0,87,0.00,,,0.00,VWS V13.01,2013-01-23 00:43:00,
2013-01-22 19:48:00,9.6,6.3,30.24,SSW,211,0.0,5.0,86,0.00,,,0.00,VWS V13.01,2013-01-23 00:48:00,
2013-01-22 19:53:00,9.6,6.3,30.24,SW,223,0.0,5.0,86,0.00,,,0.00,VWS V13.01,2013-01-23 00:53:00,
2013-01-22 19:58:00,9.6,6.3,30.24,SW,223,0.0,5.0,86,0.00,,,0.00,VWS V13.01,2013-01-23 00:58:00,
2013-01-22 20:03:00,9.6,6.5,30.24,SW,217,0.0,2.0,87,0.00,,,0.00,VWS V13.01,2013-01-23 01:03:00,
2013-01-22 20:08:00,9.6,6.5,30.23,SW,217,0.0,2.0,87,0.00,,,0.00,VWS V13.01,2013-01-23 01:08:00,
2013-01-22 20:13:00,9.9,7.1,30.24,WNW,282,2.0,5.0,88,0.00,,,0.00,VWS V13.01,2013-01-23 01:13:00,
2013-01-22 20:18:00,10.7,7.8,30.24,WNW,288,0.0,5.0,88,0.00,,,0.00,VWS V13.01,2013-01-23 01:18:00,
2013-01-22 20:23:00,11.0,8.1,30.23,WSW,249,2.0,10.0,88,0.00,,,0.00,VWS V13.01,2013-01-23 01:23:00,
2013-01-22 20:28:00,11.2,8.1,30.24,West,263,3.0,12.0,87,0.00,,,0.00,VWS V13.01,2013-01-23 01:28:00,
2013-01-22 20:33:00,11.2,7.8,30.24,West,261,1.0,8.0,86,0.00,,,0.00,VWS V13.01,2013-01-23 01:33:00,
2013-01-22 20:38:00,11.3,7.7,30.24,West,272,2.0,8.0,85,0.00,,,0.00,VWS V13.01,2013-01-23 01:38:00,
2013-01-22 20:43:00,11.3,7.7,30.24,WSW,251,3.0,9.0,85,0.00,,,0.00,VWS V13.01,2013-01-23 01:43:00,
2013-01-22 20:48:00,11.3,7.4,30.24,WNW,302,3.0,9.0,84,0.00,,,0.00,VWS V13.01,2013-01-23 01:48:00,
2013-01-22 20:53:00,11.2,7.3,30.24,WSW,247,2.0,9.0,84,0.00,,,0.00,VWS V13.01,2013-01-23 01:53:00,
2013-01-22 20:58:00,11.3,7.2,30.24,West,265,0.0,9.0,83,0.00,,,0.00,VWS V13.01,2013-01-23 01:58:00,
2013-01-22 21:03:00,11.4,7.2,30.23,WSW,245,4.0,10.0,83,0.00,,,0.00,VWS V13.01,2013-01-23 02:03:00,
2013-01-22 21:08:00,11.6,7.4,30.24,WNW,290,2.0,14.0,83,0.00,,,0.00,VWS V13.01,2013-01-23 02:08:00,
2013-01-22 21:13:00,11.5,7.3,30.24,West,280,3.0,14.0,83,0.00,,,0.00,VWS V13.01,2013-01-23 02:13:00,
2013-01-22 21:18:00,11.4,7.0,30.24,West,261,2.0,14.0,82,0.00,,,0.00,VWS V13.01,2013-01-23 02:18:00,
2013-01-22 21:23:00,11.5,7.1,30.23,WSW,257,1.0,14.0,82,0.00,,,0.00,VWS V13.01,2013-01-23 02:23:00,
2013-01-22 21:29:00,11.6,6.9,30.23,WSW,256,3.0,14.0,81,0.00,,,0.00,VWS V13.01,2013-01-23 02:29:00,
2013-01-22 21:34:00,11.7,7.0,30.23,North,9,0.0,17.0,81,0.00,,,0.00,VWS V13.01,2013-01-23 02:34:00,
2013-01-22 21:39:00,11.7,6.5,30.23,WNW,288,0.0,17.0,79,0.00,,,0.00,VWS V13.01,2013-01-23 02:39:00,
2013-01-22 21:44:00,11.7,6.2,30.23,WNW,291,3.0,17.0,78,0.00,,,0.00,VWS V13.01,2013-01-23 02:44:00,
2013-01-22 21:49:00,11.8,6.6,30.23,SW,221,5.0,17.0,79,0.00,,OVC035,0.00,VWS V13.01,2013-01-23 02:49:00,
2013-01-22 21:54:00,11.8,6.8,30.22,WNW,284,2.0,17.0,80,0.00,,OVC035,0.00,VWS V13.01,2013-01-23 02:54:00,
2013-01-22 21:59:00,11.8,6.8,30.23,NW,316,1.0,17.0,80,0.00,,OVC035,0.00,VWS V13.01,2013-01-23 02:59:00,
2013-01-22 22:04:00,11.9,7.2,30.23,SW,220,0.0,9.0,81,0.00,,,0.00,VWS V13.01,2013-01-23 03:04:00,
2013-01-22 22:09:00,11.9,7.2,30.23,WSW,257,2.0,9.0,81,0.00,,,0.00,VWS V13.01,2013-01-23 03:09:00,
2013-01-22 22:14:00,11.8,7.1,30.23,WNW,290,3.0,9.0,81,0.00,,,0.00,VWS V13.01,2013-01-23 03:14:00,
2013-01-22 22:19:00,11.8,7.1,30.23,WNW,288,0.0,9.0,81,0.00,,,0.00,VWS V13.01,2013-01-23 03:19:00,
2013-01-22 22:24:00,11.9,6.9,30.23,WNW,283,0.0,9.0,80,0.00,,,0.00,VWS V13.01,2013-01-23 03:24:00,
2013-01-22 22:29:00,12.1,6.8,30.23,NNW,342,1.0,14.0,79,0.00,,,0.00,VWS V13.01,2013-01-23 03:29:00,
2013-01-22 22:34:00,12.1,6.3,30.23,WNW,299,2.0,16.0,77,0.00,,,0.00,VWS V13.01,2013-01-23 03:34:00,
2013-01-22 22:39:00,12.2,6.4,30.23,West,278,2.0,16.0,77,0.00,,,0.00,VWS V13.01,2013-01-23 03:39:00,
2013-01-22 22:44:00,12.2,6.1,30.23,SW,229,1.0,16.0,76,0.00,,,0.00,VWS V13.01,2013-01-23 03:44:00,
2013-01-22 22:49:00,12.2,6.1,30.23,West,263,2.0,16.0,76,0.00,,,0.00,VWS V13.01,2013-01-23 03:49:00,
2013-01-22 22:54:00,12.2,6.1,30.23,West,281,4.0,16.0,76,0.00,,,0.00,VWS V13.01,2013-01-23 03:54:00,
2013-01-22 22:59:00,12.3,6.5,30.23,West,279,3.0,16.0,77,0.00,,,0.00,VWS V13.01,2013-01-23 03:59:00,
2013-01-22 23:04:00,12.3,6.8,30.22,NW,310,2.0,9.0,78,0.00,,OVC048,0.00,VWS V13.01,2013-01-23 04:04:00,
2013-01-22 23:09:00,12.3,6.8,30.23,North,355,1.0,9.0,78,0.00,,OVC048,0.00,VWS V13.01,2013-01-23 04:09:00,
2013-01-22 23:14:00,12.2,7.2,30.23,WNW,282,1.0,10.0,80,0.00,,OVC048,0.00,VWS V13.01,2013-01-23 04:14:00,
2013-01-22 23:19:00,12.1,7.7,30.22,NNE,22,1.0,10.0,82,0.00,,,0.00,VWS V13.01,2013-01-23 04:19:00,
2013-01-22 23:24:00,12.0,7.6,30.22,West,281,1.0,10.0,82,0.00,,,0.00,VWS V13.01,2013-01-23 04:24:00,
2013-01-22 23:29:00,11.9,7.5,30.23,SW,225,5.0,11.0,82,0.00,,,0.00,VWS V13.01,2013-01-23 04:29:00,
2013-01-22 23:34:00,11.9,6.9,30.23,West,269,1.0,7.0,80,0.00,,,0.00,VWS V13.01,2013-01-23 04:34:00,
2013-01-22 23:39:00,12.0,7.0,30.22,West,281,3.0,7.0,80,0.00,,,0.00,VWS V13.01,2013-01-23 04:39:00,
2013-01-22 23:44:00,12.2,7.2,30.22,West,273,2.0,7.0,80,0.00,,,0.00,VWS V13.01,2013-01-23 04:44:00,
2013-01-22 23:49:00,12.2,7.5,30.22,West,270,4.0,7.0,81,0.00,,,0.00,VWS V13.01,2013-01-23 04:49:00,
2013-01-22 23:54:00,12.2,7.5,30.22,West,281,2.0,7.0,81,0.00,,,0.00,VWS V13.01,2013-01-23 04:54:00,
2013-01-22 23:59:00,12.2,7.5,30.23,West,263,4.0,7.0,81,0.00,,,0.00,VWS V13.01,2013-01-23 04:59:00,